sensor_id;sensor_type;location;lat;lon;timestamp;temperature;humidity
4175;DHT22;2101;48.290;14.382;2024-02-16T00:01:08;6.10;99.90
4175;DHT22;2101;48.290;14.382;2024-02-16T00:04:06;6.00;99.90
4175;DHT22;2101;48.290;14.382;2024-02-16T00:13:51;5.90;99.90
4175;DHT22;2101;48.290;14.382;2024-02-16T00:16:43;5.90;99.90
4175;DHT22;2101;48.290;14.382;2024-02-16T00:19:23;5.90;99.90
4175;DHT22;2101;48.290;14.382;2024-02-16T00:22:41;5.80;99.90
4175;DHT22;2101;48.290;14.382;2024-02-16T00:38:18;5.80;99.90
4175;DHT22;2101;48.290;14.382;2024-02-16T00:41:32;5.80;99.90
4175;DHT22;2101;48.290;14.382;2024-02-16T00:44:10;5.90;99.90
4175;DHT22;2101;48.290;14.382;2024-02-16T00:47:00;5.80;99.90
4175;DHT22;2101;48.290;14.382;2024-02-16T00:49:36;5.80;99.90
4175;DHT22;2101;48.290;14.382;2024-02-16T00:52:26;5.70;99.90
4175;DHT22;2101;48.290;14.382;2024-02-16T01:02:41;5.50;99.90
4175;DHT22;2101;48.290;14.382;2024-02-16T01:11:04;5.50;99.90
4175;DHT22;2101;48.290;14.382;2024-02-16T01:14:16;5.50;99.90
4175;DHT22;2101;48.290;14.382;2024-02-16T01:16:51;5.50;99.90
4175;DHT22;2101;48.290;14.382;2024-02-16T01:19:21;5.40;99.90
4175;DHT22;2101;48.290;14.382;2024-02-16T01:22:00;5.50;99.90
4175;DHT22;2101;48.290;14.382;2024-02-16T01:24:28;5.40;99.90
4175;DHT22;2101;48.290;14.382;2024-02-16T01:26:58;5.30;99.90
4175;DHT22;2101;48.290;14.382;2024-02-16T01:29:33;5.40;99.90
4175;DHT22;2101;48.290;14.382;2024-02-16T01:32:14;5.40;99.90
4175;DHT22;2101;48.290;14.382;2024-02-16T01:34:40;5.40;99.90
4175;DHT22;2101;48.290;14.382;2024-02-16T01:40:08;5.30;99.90
4175;DHT22;2101;48.290;14.382;2024-02-16T01:42:47;5.20;99.90
4175;DHT22;2101;48.290;14.382;2024-02-16T01:45:21;5.30;99.90
4175;DHT22;2101;48.290;14.382;2024-02-16T01:47:59;5.20;99.90
4175;DHT22;2101;48.290;14.382;2024-02-16T01:53:20;5.10;99.90
4175;DHT22;2101;48.290;14.382;2024-02-16T01:58:40;5.00;99.90
4175;DHT22;2101;48.290;14.382;2024-02-16T02:01:11;5.00;99.90
4175;DHT22;2101;48.290;14.382;2024-02-16T02:07:16;4.80;99.90
4175;DHT22;2101;48.290;14.382;2024-02-16T02:09:47;4.70;99.90
4175;DHT22;2101;48.290;14.382;2024-02-16T02:13:41;4.70;99.90
4175;DHT22;2101;48.290;14.382;2024-02-16T02:16:52;4.70;99.90
4175;DHT22;2101;48.290;14.382;2024-02-16T02:19:20;4.70;99.90
4175;DHT22;2101;48.290;14.382;2024-02-16T02:22:19;4.70;99.90
4175;DHT22;2101;48.290;14.382;2024-02-16T02:24:49;4.60;99.90
4175;DHT22;2101;48.290;14.382;2024-02-16T02:27:16;4.70;99.90
4175;DHT22;2101;48.290;14.382;2024-02-16T02:29:42;4.70;99.90
4175;DHT22;2101;48.290;14.382;2024-02-16T02:32:43;4.60;99.90
4175;DHT22;2101;48.290;14.382;2024-02-16T02:35:49;4.60;99.90
4175;DHT22;2101;48.290;14.382;2024-02-16T02:38:24;4.50;99.90
4175;DHT22;2101;48.290;14.382;2024-02-16T02:40:53;4.50;99.90
4175;DHT22;2101;48.290;14.382;2024-02-16T02:43:28;4.40;99.90
4175;DHT22;2101;48.290;14.382;2024-02-16T02:45:55;4.40;99.90
4175;DHT22;2101;48.290;14.382;2024-02-16T02:48:23;4.20;99.90
4175;DHT22;2101;48.290;14.382;2024-02-16T02:51:22;4.20;99.90
4175;DHT22;2101;48.290;14.382;2024-02-16T02:54:29;4.30;99.90
4175;DHT22;2101;48.290;14.382;2024-02-16T02:57:24;4.30;99.90
4175;DHT22;2101;48.290;14.382;2024-02-16T03:00:14;4.30;99.90
4175;DHT22;2101;48.290;14.382;2024-02-16T03:03:21;4.30;99.90
4175;DHT22;2101;48.290;14.382;2024-02-16T03:06:23;4.20;99.90
4175;DHT22;2101;48.290;14.382;2024-02-16T03:09:01;4.20;99.90
4175;DHT22;2101;48.290;14.382;2024-02-16T03:11:59;4.20;99.90
4175;DHT22;2101;48.290;14.382;2024-02-16T03:18:55;4.20;99.90
4175;DHT22;2101;48.290;14.382;2024-02-16T03:21:48;4.20;99.90
4175;DHT22;2101;48.290;14.382;2024-02-16T03:24:20;4.20;99.90
4175;DHT22;2101;48.290;14.382;2024-02-16T03:30:20;4.20;99.90
4175;DHT22;2101;48.290;14.382;2024-02-16T03:37:13;4.10;99.90
4175;DHT22;2101;48.290;14.382;2024-02-16T03:39:47;4.10;99.90
4175;DHT22;2101;48.290;14.382;2024-02-16T03:43:01;4.00;99.90
4175;DHT22;2101;48.290;14.382;2024-02-16T03:45:47;3.90;99.90
4175;DHT22;2101;48.290;14.382;2024-02-16T03:48:45;4.00;99.90
4175;DHT22;2101;48.290;14.382;2024-02-16T03:51:20;4.00;99.90
4175;DHT22;2101;48.290;14.382;2024-02-16T03:53:53;4.00;99.90
4175;DHT22;2101;48.290;14.382;2024-02-16T03:56:38;4.00;99.90
4175;DHT22;2101;48.290;14.382;2024-02-16T03:59:57;4.00;99.90
4175;DHT22;2101;48.290;14.382;2024-02-16T04:03:21;4.00;99.90
4175;DHT22;2101;48.290;14.382;2024-02-16T04:07:03;4.00;99.90
4175;DHT22;2101;48.290;14.382;2024-02-16T04:10:20;3.90;99.90
4175;DHT22;2101;48.290;14.382;2024-02-16T04:12:57;3.90;99.90
4175;DHT22;2101;48.290;14.382;2024-02-16T04:18:39;3.90;99.90
4175;DHT22;2101;48.290;14.382;2024-02-16T04:21:26;3.90;99.90
4175;DHT22;2101;48.290;14.382;2024-02-16T04:24:21;3.80;99.90
4175;DHT22;2101;48.290;14.382;2024-02-16T04:27:36;3.90;99.90
4175;DHT22;2101;48.290;14.382;2024-02-16T04:30:27;3.90;99.90
4175;DHT22;2101;48.290;14.382;2024-02-16T04:33:29;3.90;99.90
4175;DHT22;2101;48.290;14.382;2024-02-16T04:36:20;3.80;99.90
4175;DHT22;2101;48.290;14.382;2024-02-16T04:39:06;3.80;99.90
4175;DHT22;2101;48.290;14.382;2024-02-16T04:42:12;3.80;99.90
4175;DHT22;2101;48.290;14.382;2024-02-16T04:45:42;3.80;99.90
4175;DHT22;2101;48.290;14.382;2024-02-16T04:49:33;3.80;99.90
4175;DHT22;2101;48.290;14.382;2024-02-16T04:53:01;3.80;99.90
4175;DHT22;2101;48.290;14.382;2024-02-16T04:56:43;3.80;99.90
4175;DHT22;2101;48.290;14.382;2024-02-16T05:00:54;3.80;99.90
4175;DHT22;2101;48.290;14.382;2024-02-16T05:04:13;3.80;99.90
4175;DHT22;2101;48.290;14.382;2024-02-16T05:07:42;3.90;99.90
4175;DHT22;2101;48.290;14.382;2024-02-16T05:11:11;3.80;99.90
4175;DHT22;2101;48.290;14.382;2024-02-16T05:14:24;3.80;99.90
4175;DHT22;2101;48.290;14.382;2024-02-16T05:17:16;3.90;99.90
4175;DHT22;2101;48.290;14.382;2024-02-16T05:23:06;3.90;99.90
4175;DHT22;2101;48.290;14.382;2024-02-16T05:26:42;3.90;99.90
4175;DHT22;2101;48.290;14.382;2024-02-16T05:29:50;3.90;99.90
4175;DHT22;2101;48.290;14.382;2024-02-16T05:32:37;3.90;99.90
4175;DHT22;2101;48.290;14.382;2024-02-16T05:35:15;3.90;99.90
4175;DHT22;2101;48.290;14.382;2024-02-16T05:38:33;3.90;99.90
4175;DHT22;2101;48.290;14.382;2024-02-16T05:41:27;3.90;99.90
4175;DHT22;2101;48.290;14.382;2024-02-16T05:44:40;3.90;99.90
4175;DHT22;2101;48.290;14.382;2024-02-16T05:47:15;3.90;99.90
4175;DHT22;2101;48.290;14.382;2024-02-16T05:50:41;3.90;99.90
4175;DHT22;2101;48.290;14.382;2024-02-16T05:53:59;4.00;99.90
4175;DHT22;2101;48.290;14.382;2024-02-16T05:56:52;4.00;99.90
4175;DHT22;2101;48.290;14.382;2024-02-16T05:59:27;4.00;99.90
4175;DHT22;2101;48.290;14.382;2024-02-16T06:06:09;4.00;99.90
4175;DHT22;2101;48.290;14.382;2024-02-16T06:09:11;3.90;99.90
4175;DHT22;2101;48.290;14.382;2024-02-16T06:11:48;3.90;99.90
4175;DHT22;2101;48.290;14.382;2024-02-16T06:14:47;3.80;99.90
4175;DHT22;2101;48.290;14.382;2024-02-16T06:17:55;3.90;99.90
4175;DHT22;2101;48.290;14.382;2024-02-16T06:21:10;3.80;99.90
4175;DHT22;2101;48.290;14.382;2024-02-16T06:23:59;3.80;99.90
4175;DHT22;2101;48.290;14.382;2024-02-16T06:26:58;3.80;99.90
4175;DHT22;2101;48.290;14.382;2024-02-16T06:29:56;3.70;99.90
4175;DHT22;2101;48.290;14.382;2024-02-16T07:42:11;4.40;99.90
4175;DHT22;2101;48.290;14.382;2024-02-16T08:45:45;6.10;99.90
4175;DHT22;2101;48.290;14.382;2024-02-16T08:49:15;5.80;99.90
4175;DHT22;2101;48.290;14.382;2024-02-16T08:52:33;5.70;99.90
4175;DHT22;2101;48.290;14.382;2024-02-16T08:56:02;6.10;99.90
4175;DHT22;2101;48.290;14.382;2024-02-16T08:59:43;5.90;99.90
4175;DHT22;2101;48.290;14.382;2024-02-16T09:06:26;6.30;99.90
4175;DHT22;2101;48.290;14.382;2024-02-16T09:09:40;6.30;99.90
4175;DHT22;2101;48.290;14.382;2024-02-16T09:20:01;6.60;99.90
4175;DHT22;2101;48.290;14.382;2024-02-16T09:23:21;6.70;99.90
4175;DHT22;2101;48.290;14.382;2024-02-16T09:26:30;6.80;99.90
4175;DHT22;2101;48.290;14.382;2024-02-16T09:29:44;6.70;99.90
4175;DHT22;2101;48.290;14.382;2024-02-16T09:33:17;6.70;99.90
4175;DHT22;2101;48.290;14.382;2024-02-16T10:20:50;8.60;99.90
4175;DHT22;2101;48.290;14.382;2024-02-16T10:50:43;9.10;99.90
4175;DHT22;2101;48.290;14.382;2024-02-16T10:53:33;9.20;99.90
4175;DHT22;2101;48.290;14.382;2024-02-16T10:56:03;9.20;99.90
4175;DHT22;2101;48.290;14.382;2024-02-16T10:58:44;9.20;99.90
4175;DHT22;2101;48.290;14.382;2024-02-16T11:01:18;8.90;99.90
4175;DHT22;2101;48.290;14.382;2024-02-16T11:04:06;9.00;99.90
4175;DHT22;2101;48.290;14.382;2024-02-16T11:07:21;9.20;99.90
4175;DHT22;2101;48.290;14.382;2024-02-16T11:10:18;8.60;99.90
4175;DHT22;2101;48.290;14.382;2024-02-16T11:12:54;8.60;99.90
4175;DHT22;2101;48.290;14.382;2024-02-16T11:15:35;8.80;99.90
4175;DHT22;2101;48.290;14.382;2024-02-16T11:18:46;9.00;99.90
4175;DHT22;2101;48.290;14.382;2024-02-16T11:21:34;8.90;99.90
4175;DHT22;2101;48.290;14.382;2024-02-16T11:27:56;8.90;99.90
4175;DHT22;2101;48.290;14.382;2024-02-16T11:33:32;9.20;99.90
4175;DHT22;2101;48.290;14.382;2024-02-16T11:36:04;9.20;99.90
4175;DHT22;2101;48.290;14.382;2024-02-16T11:38:34;9.50;99.90
4175;DHT22;2101;48.290;14.382;2024-02-16T11:41:32;9.60;99.90
4175;DHT22;2101;48.290;14.382;2024-02-16T11:44:39;9.50;99.90
4175;DHT22;2101;48.290;14.382;2024-02-16T11:47:43;9.10;99.90
4175;DHT22;2101;48.290;14.382;2024-02-16T11:50:17;9.20;99.90
4175;DHT22;2101;48.290;14.382;2024-02-16T11:53:08;9.30;99.90
4175;DHT22;2101;48.290;14.382;2024-02-16T11:56:38;9.50;99.90
4175;DHT22;2101;48.290;14.382;2024-02-16T11:59:16;9.60;99.90
4175;DHT22;2101;48.290;14.382;2024-02-16T12:02:43;9.50;99.90
4175;DHT22;2101;48.290;14.382;2024-02-16T12:05:42;9.40;99.90
4175;DHT22;2101;48.290;14.382;2024-02-16T12:08:41;9.60;99.90
4175;DHT22;2101;48.290;14.382;2024-02-16T12:11:40;9.70;99.90
4175;DHT22;2101;48.290;14.382;2024-02-16T12:18:03;10.00;99.90
4175;DHT22;2101;48.290;14.382;2024-02-16T12:20:55;9.80;99.90
4175;DHT22;2101;48.290;14.382;2024-02-16T12:23:48;9.90;99.90
4175;DHT22;2101;48.290;14.382;2024-02-16T12:33:42;9.80;99.90
4175;DHT22;2101;48.290;14.382;2024-02-16T12:36:57;10.10;99.90
4175;DHT22;2101;48.290;14.382;2024-02-16T12:47:09;10.00;99.90
4175;DHT22;2101;48.290;14.382;2024-02-16T13:05:16;10.50;99.90
4175;DHT22;2101;48.290;14.382;2024-02-16T13:16:07;10.80;99.90
4175;DHT22;2101;48.290;14.382;2024-02-16T14:37:24;11.80;99.90
4175;DHT22;2101;48.290;14.382;2024-02-16T18:43:26;8.80;99.90
4175;DHT22;2101;48.290;14.382;2024-02-16T18:50:29;8.80;99.90
4175;DHT22;2101;48.290;14.382;2024-02-16T18:56:17;8.70;99.90
4175;DHT22;2101;48.290;14.382;2024-02-16T18:59:09;8.70;99.90
4175;DHT22;2101;48.290;14.382;2024-02-16T19:08:19;8.70;99.90
4175;DHT22;2101;48.290;14.382;2024-02-16T19:11:06;8.70;99.90
4175;DHT22;2101;48.290;14.382;2024-02-16T19:26:39;8.70;99.90
4175;DHT22;2101;48.290;14.382;2024-02-16T19:36:21;8.70;99.90
4175;DHT22;2101;48.290;14.382;2024-02-16T19:50:18;8.40;99.90
4175;DHT22;2101;48.290;14.382;2024-02-16T20:00:35;8.40;99.90
4175;DHT22;2101;48.290;14.382;2024-02-16T20:03:52;8.50;99.90
4175;DHT22;2101;48.290;14.382;2024-02-16T20:10:01;8.30;99.90
4175;DHT22;2101;48.290;14.382;2024-02-16T20:12:44;8.30;99.90
4175;DHT22;2101;48.290;14.382;2024-02-16T20:15:39;8.30;99.90
4175;DHT22;2101;48.290;14.382;2024-02-16T20:18:09;8.30;99.90
4175;DHT22;2101;48.290;14.382;2024-02-16T20:21:11;8.30;99.90
4175;DHT22;2101;48.290;14.382;2024-02-16T20:30:02;8.10;99.90
4175;DHT22;2101;48.290;14.382;2024-02-16T20:38:31;8.10;99.90
4175;DHT22;2101;48.290;14.382;2024-02-16T20:41:51;8.10;99.90
4175;DHT22;2101;48.290;14.382;2024-02-16T20:44:41;8.10;99.90
4175;DHT22;2101;48.290;14.382;2024-02-16T20:47:45;8.20;99.90
4175;DHT22;2101;48.290;14.382;2024-02-16T20:53:49;8.00;99.90
4175;DHT22;2101;48.290;14.382;2024-02-16T21:07:16;7.80;99.90
4175;DHT22;2101;48.290;14.382;2024-02-16T21:13:56;7.80;99.90
4175;DHT22;2101;48.290;14.382;2024-02-16T21:27:43;7.60;99.90
4175;DHT22;2101;48.290;14.382;2024-02-16T21:30:42;7.60;99.90
4175;DHT22;2101;48.290;14.382;2024-02-16T21:33:24;7.60;99.90
4175;DHT22;2101;48.290;14.382;2024-02-16T21:36:11;7.60;99.90
4175;DHT22;2101;48.290;14.382;2024-02-16T21:38:43;7.60;99.90
4175;DHT22;2101;48.290;14.382;2024-02-16T21:44:14;7.60;99.90
4175;DHT22;2101;48.290;14.382;2024-02-16T21:46:50;7.50;99.90
4175;DHT22;2101;48.290;14.382;2024-02-16T21:49:35;7.50;99.90
4175;DHT22;2101;48.290;14.382;2024-02-16T21:52:15;7.40;99.90
4175;DHT22;2101;48.290;14.382;2024-02-16T21:54:58;7.30;99.90
4175;DHT22;2101;48.290;14.382;2024-02-16T21:57:26;7.30;99.90
4175;DHT22;2101;48.290;14.382;2024-02-16T21:59:56;7.20;99.90
4175;DHT22;2101;48.290;14.382;2024-02-16T22:02:36;7.20;99.90
4175;DHT22;2101;48.290;14.382;2024-02-16T22:05:12;7.10;99.90
4175;DHT22;2101;48.290;14.382;2024-02-16T22:07:45;7.10;99.90
4175;DHT22;2101;48.290;14.382;2024-02-16T22:10:15;7.00;99.90
4175;DHT22;2101;48.290;14.382;2024-02-16T22:12:46;6.90;99.90
4175;DHT22;2101;48.290;14.382;2024-02-16T22:15:13;6.90;99.90
4175;DHT22;2101;48.290;14.382;2024-02-16T22:17:38;6.80;99.90
4175;DHT22;2101;48.290;14.382;2024-02-16T22:20:05;6.80;99.90
4175;DHT22;2101;48.290;14.382;2024-02-16T22:22:31;6.80;99.90
4175;DHT22;2101;48.290;14.382;2024-02-16T22:25:21;6.70;99.90
4175;DHT22;2101;48.290;14.382;2024-02-16T22:28:40;6.70;99.90
4175;DHT22;2101;48.290;14.382;2024-02-16T22:32:10;6.60;99.90
4175;DHT22;2101;48.290;14.382;2024-02-16T22:34:43;6.60;99.90
4175;DHT22;2101;48.290;14.382;2024-02-16T22:37:18;6.60;99.90
4175;DHT22;2101;48.290;14.382;2024-02-16T22:39:57;6.50;99.90
4175;DHT22;2101;48.290;14.382;2024-02-16T22:42:34;6.40;99.90
4175;DHT22;2101;48.290;14.382;2024-02-16T22:45:35;6.40;99.90
4175;DHT22;2101;48.290;14.382;2024-02-16T22:48:18;6.30;99.90
4175;DHT22;2101;48.290;14.382;2024-02-16T22:50:53;6.40;99.90
4175;DHT22;2101;48.290;14.382;2024-02-16T22:53:20;6.40;99.90
4175;DHT22;2101;48.290;14.382;2024-02-16T22:56:05;6.40;99.90
4175;DHT22;2101;48.290;14.382;2024-02-16T22:59:01;6.40;99.90
4175;DHT22;2101;48.290;14.382;2024-02-16T23:01:39;6.30;99.90
4175;DHT22;2101;48.290;14.382;2024-02-16T23:04:29;6.30;99.90
4175;DHT22;2101;48.290;14.382;2024-02-16T23:07:00;6.30;99.90
4175;DHT22;2101;48.290;14.382;2024-02-16T23:09:32;6.40;99.90
4175;DHT22;2101;48.290;14.382;2024-02-16T23:12:02;6.30;99.90
4175;DHT22;2101;48.290;14.382;2024-02-16T23:14:36;6.30;99.90
4175;DHT22;2101;48.290;14.382;2024-02-16T23:17:34;6.30;99.90
4175;DHT22;2101;48.290;14.382;2024-02-16T23:23:17;6.20;99.90
4175;DHT22;2101;48.290;14.382;2024-02-16T23:26:26;6.30;99.90
4175;DHT22;2101;48.290;14.382;2024-02-16T23:33:11;6.30;99.90
4175;DHT22;2101;48.290;14.382;2024-02-16T23:43:24;6.20;99.90
4175;DHT22;2101;48.290;14.382;2024-02-16T23:49:12;6.20;99.90
4175;DHT22;2101;48.290;14.382;2024-02-16T23:52:14;6.30;99.90
